createdAt,value
2023-01-19T00:00:55.229Z,5.72
2023-01-19T00:03:22.496Z,4.32
2023-01-19T00:05:49.941Z,2.67
2023-01-19T00:08:17.873Z,3.35
2023-01-19T00:10:49.316Z,18.90
2023-01-19T00:13:16.777Z,2.80
2023-01-19T00:15:44.409Z,1.80
2023-01-19T00:18:11.660Z,7.82
2023-01-19T00:20:39.530Z,2.78
2023-01-19T00:23:08.120Z,6.13
2023-01-19T00:25:35.998Z,2.92
2023-01-19T00:28:03.233Z,2.80
2023-01-19T00:30:30.604Z,3.63
2023-01-19T00:32:58.414Z,2.03
2023-01-19T00:35:26.105Z,1.42
2023-01-19T00:37:53.291Z,4.75
2023-01-19T00:40:20.506Z,3.53
2023-01-19T00:42:48.535Z,6.53
2023-01-19T00:45:18.621Z,3.42
2023-01-19T00:47:46.212Z,3.15
2023-01-19T00:50:14.170Z,6.03
2023-01-19T00:52:41.999Z,2.95
2023-01-19T00:55:10.231Z,7.95
2023-01-19T00:57:37.719Z,5.75
2023-01-19T01:00:09.355Z,5.07
2023-01-19T01:02:37.558Z,7.30
2023-01-19T01:05:06.069Z,3.28
2023-01-19T01:07:44.618Z,3.97
2023-01-19T01:10:13.673Z,5.93
2023-01-19T01:12:41.336Z,3.13
2023-01-19T01:15:22.969Z,7.60
2023-01-19T01:17:53.013Z,8.00
2023-01-19T01:20:21.985Z,2.85
2023-01-19T01:22:51.128Z,7.45
2023-01-19T01:25:19.609Z,6.57
2023-01-19T01:27:46.853Z,3.57
2023-01-19T01:30:15.303Z,9.23
2023-01-19T01:32:43.733Z,10.47
2023-01-19T01:35:11.342Z,5.60
2023-01-19T01:37:38.943Z,9.55
2023-01-19T01:40:07.018Z,5.97
2023-01-19T01:42:34.773Z,2.63
2023-01-19T01:45:03.616Z,3.60
2023-01-19T01:47:47.676Z,2.58
2023-01-19T01:50:14.930Z,2.72
2023-01-19T01:53:07.013Z,3.08
2023-01-19T01:55:35.584Z,3.92
2023-01-19T01:58:03.911Z,5.77
2023-01-19T02:00:51.791Z,8.00
2023-01-19T02:03:19.222Z,6.07
2023-01-19T02:05:46.693Z,4.13
2023-01-19T02:08:36.175Z,3.25
2023-01-19T02:11:22.270Z,2.83
2023-01-19T02:13:49.573Z,4.78
2023-01-19T02:16:17.329Z,6.95
2023-01-19T02:18:45.277Z,4.30
2023-01-19T02:21:38.714Z,4.35
2023-01-19T02:24:07.376Z,10.57
2023-01-19T02:26:35.865Z,4.65
2023-01-19T02:29:04.211Z,6.70
2023-01-19T02:31:32.560Z,4.68
2023-01-19T02:34:01.032Z,2.85
2023-01-19T02:36:48.557Z,6.13
2023-01-19T02:39:16.344Z,6.22
2023-01-19T02:41:45.726Z,4.15
2023-01-19T02:46:41.086Z,6.70
2023-01-19T02:49:08.272Z,7.10
2023-01-19T02:51:36.055Z,5.97
2023-01-19T02:54:22.007Z,7.03
2023-01-19T02:57:07.768Z,6.63
2023-01-19T02:59:35.451Z,11.55
2023-01-19T03:02:10.146Z,11.63
2023-01-19T03:04:56.543Z,11.93
2023-01-19T03:07:32.731Z,4.10
2023-01-19T03:10:16.437Z,8.82
2023-01-19T03:13:03.400Z,3.20
2023-01-19T03:15:38.104Z,6.22
2023-01-19T03:18:07.214Z,4.82
2023-01-19T03:20:34.628Z,3.70
2023-01-19T03:23:03.809Z,2.65
2023-01-19T03:27:58.711Z,2.67
2023-01-19T03:30:31.012Z,1.95
2023-01-19T03:33:04.838Z,1.73
2023-01-19T03:35:33.233Z,4.80
2023-01-19T03:38:01.885Z,3.65
2023-01-19T03:40:30.788Z,3.40
2023-01-19T03:42:58.625Z,3.03
2023-01-19T03:45:26.052Z,5.97
2023-01-19T03:47:53.337Z,8.20
2023-01-19T03:50:25.197Z,6.72
2023-01-19T03:53:22.785Z,8.18
2023-01-19T03:55:51.636Z,5.25
2023-01-19T03:58:18.917Z,9.15
2023-01-19T04:00:46.152Z,7.75
2023-01-19T04:03:14.653Z,8.20
2023-01-19T04:05:42.140Z,12.38
2023-01-19T04:08:09.889Z,6.88
2023-01-19T04:10:37.523Z,5.70
2023-01-19T04:13:05.337Z,9.77
2023-01-19T04:15:32.913Z,4.32
2023-01-19T04:18:00.791Z,4.80
2023-01-19T04:20:28.334Z,5.57
2023-01-19T04:22:57.476Z,9.50
2023-01-19T04:25:24.717Z,13.75
2023-01-19T04:27:52.910Z,8.25
2023-01-19T04:30:20.329Z,8.45
2023-01-19T04:32:47.673Z,6.28
2023-01-19T04:35:14.929Z,6.47
2023-01-19T04:37:42.192Z,12.25
2023-01-19T04:40:09.830Z,6.78
2023-01-19T04:42:37.208Z,4.35
2023-01-19T04:45:04.652Z,8.98
2023-01-19T04:47:31.883Z,14.15
2023-01-19T04:49:59.076Z,8.32
2023-01-19T04:52:26.307Z,17.33
2023-01-19T04:54:53.547Z,20.17
2023-01-19T04:57:20.741Z,17.67
2023-01-19T04:59:47.937Z,19.38
2023-01-19T05:02:15.250Z,15.23
2023-01-19T05:04:42.478Z,19.63
2023-01-19T05:07:10.332Z,12.50
2023-01-19T05:09:37.649Z,10.00
2023-01-19T05:12:05.013Z,12.90
2023-01-19T05:14:32.212Z,21.10
2023-01-19T05:17:00.471Z,11.20
2023-01-19T05:19:27.682Z,7.88
2023-01-19T05:21:55.129Z,21.38
2023-01-19T05:24:22.391Z,18.88
2023-01-19T05:26:49.645Z,26.02
2023-01-19T05:29:16.926Z,10.95
2023-01-19T05:31:44.250Z,11.90
2023-01-19T05:34:12.151Z,19.35
2023-01-19T05:36:39.497Z,16.10
2023-01-19T05:39:06.865Z,13.52
2023-01-19T05:41:34.068Z,16.35
2023-01-19T05:44:01.286Z,14.52
2023-01-19T05:46:28.629Z,13.75
2023-01-19T05:48:55.952Z,14.98
2023-01-19T05:51:23.155Z,19.38
2023-01-19T05:53:50.542Z,17.63
2023-01-19T05:56:17.719Z,17.27
2023-01-19T05:58:44.975Z,18.48
2023-01-19T06:01:12.238Z,11.77
2023-01-19T06:03:39.910Z,16.80
2023-01-19T06:06:07.292Z,14.57
2023-01-19T06:08:34.883Z,16.10
2023-01-19T06:11:02.328Z,16.35
2023-01-19T06:13:29.624Z,18.92
2023-01-19T06:16:00.267Z,16.13
2023-01-19T06:18:28.169Z,16.20
2023-01-19T06:20:58.894Z,17.20
2023-01-19T06:23:31.097Z,16.55
2023-01-19T06:25:58.341Z,24.10
2023-01-19T06:28:25.727Z,16.10
2023-01-19T06:30:54.198Z,16.13
2023-01-19T06:33:21.497Z,14.73
2023-01-19T06:35:50.902Z,20.52
2023-01-19T06:40:47.203Z,17.10
2023-01-19T06:43:14.544Z,17.83
2023-01-19T06:45:41.889Z,15.40
2023-01-19T06:48:09.225Z,13.38
2023-01-19T06:50:36.488Z,11.77
2023-01-19T06:53:03.730Z,16.70
2023-01-19T06:55:30.984Z,13.95
2023-01-19T06:58:01.304Z,15.02
2023-01-19T07:00:28.999Z,12.38
2023-01-19T07:02:56.335Z,10.98
2023-01-19T07:05:24.492Z,11.55
2023-01-19T07:07:52.759Z,18.48
2023-01-19T07:10:20.057Z,18.10
2023-01-19T07:12:47.486Z,11.07
2023-01-19T07:15:16.173Z,10.88
2023-01-19T07:17:43.918Z,7.00
2023-01-19T07:20:13.072Z,11.90
2023-01-19T07:22:41.301Z,11.52
2023-01-19T07:25:08.750Z,14.70
2023-01-19T07:27:35.976Z,5.32
2023-01-19T07:30:04.560Z,11.45
2023-01-19T07:32:31.801Z,10.63
2023-01-19T07:34:59.066Z,9.57
2023-01-19T07:37:26.319Z,10.98
2023-01-19T07:39:53.660Z,17.38
2023-01-19T07:42:20.950Z,13.27
2023-01-19T07:44:48.276Z,14.23
2023-01-19T07:47:15.595Z,12.25
2023-01-19T07:49:42.885Z,18.17
2023-01-19T07:52:10.290Z,17.02
2023-01-19T07:54:37.534Z,16.17
2023-01-19T07:57:04.805Z,9.88
2023-01-19T07:59:32.417Z,13.00
2023-01-19T08:02:00.397Z,13.45
2023-01-19T08:04:28.265Z,7.30
2023-01-19T08:06:56.159Z,9.88
2023-01-19T08:09:24.429Z,20.25
2023-01-19T08:11:51.716Z,8.20
2023-01-19T08:14:19.062Z,8.15
2023-01-19T08:16:46.320Z,6.82
2023-01-19T08:19:13.589Z,10.55
2023-01-19T08:21:41.112Z,11.73
2023-01-19T08:24:16.707Z,10.20
2023-01-19T08:26:44.124Z,12.45
2023-01-19T08:29:11.323Z,10.88
2023-01-19T08:31:39.614Z,11.35
2023-01-19T08:34:06.964Z,7.45
2023-01-19T08:36:34.600Z,9.07
2023-01-19T08:39:01.860Z,6.90
2023-01-19T08:41:29.112Z,12.00
2023-01-19T08:43:56.333Z,8.85
2023-01-19T08:46:23.606Z,8.27
2023-01-19T08:48:51.060Z,13.48
2023-01-19T08:51:18.466Z,6.75
2023-01-19T08:53:45.848Z,9.60
2023-01-19T08:56:13.851Z,16.25
2023-01-19T08:58:42.111Z,13.15
2023-01-19T09:01:09.904Z,11.65
2023-01-19T09:03:37.905Z,14.35
2023-01-19T09:06:08.730Z,8.35
2023-01-19T09:08:36.371Z,9.50
2023-01-19T09:11:05.210Z,12.93
2023-01-19T09:13:32.477Z,14.27
2023-01-19T09:16:02.985Z,12.25
2023-01-19T09:18:30.585Z,15.80
2023-01-19T09:20:58.409Z,15.65
2023-01-19T09:23:26.071Z,11.68
2023-01-19T09:26:00.643Z,14.02
2023-01-19T09:28:29.288Z,21.42
2023-01-19T09:30:56.850Z,10.85
2023-01-19T09:33:24.727Z,15.85
2023-01-19T09:35:52.333Z,11.63
2023-01-19T09:38:20.828Z,7.82
2023-01-19T09:40:49.621Z,12.60
2023-01-19T09:43:16.999Z,16.42
2023-01-19T09:45:47.229Z,9.00
2023-01-19T09:48:23.895Z,12.90
2023-01-19T09:50:51.304Z,12.20
2023-01-19T09:53:22.739Z,14.68
2023-01-19T09:55:51.153Z,10.80
2023-01-19T09:58:19.327Z,4.83
2023-01-19T10:00:51.757Z,11.30
2023-01-19T10:03:20.869Z,8.15
2023-01-19T10:05:50.307Z,5.43
2023-01-19T10:10:47.897Z,3.50
2023-01-19T10:13:35.285Z,4.75
2023-01-19T10:16:02.533Z,4.97
2023-01-19T10:18:37.060Z,6.90
2023-01-19T10:21:15.901Z,4.82
2023-01-19T10:23:48.282Z,4.95
2023-01-19T10:26:20.734Z,9.05
2023-01-19T10:28:49.463Z,6.78
2023-01-19T10:31:19.195Z,6.28
2023-01-19T10:33:46.762Z,7.78
2023-01-19T10:36:17.918Z,6.18
2023-01-19T10:38:45.878Z,7.88
2023-01-19T10:41:18.782Z,5.90
2023-01-19T10:43:46.941Z,6.40
2023-01-19T10:46:22.200Z,8.05
2023-01-19T10:48:50.592Z,8.63
2023-01-19T10:51:18.051Z,4.30
2023-01-19T10:53:54.627Z,4.63
2023-01-19T10:56:23.885Z,3.42
2023-01-19T11:01:20.091Z,5.57
2023-01-19T11:03:47.564Z,6.85
2023-01-19T11:06:18.675Z,6.75
2023-01-19T11:08:47.188Z,10.45
2023-01-19T11:11:14.801Z,9.32
2023-01-19T11:13:43.755Z,4.57
2023-01-19T11:16:24.593Z,6.30
2023-01-19T11:18:56.105Z,5.95
2023-01-19T11:21:26.016Z,5.55
2023-01-19T11:23:54.663Z,5.07
2023-01-19T11:26:28.310Z,5.57
2023-01-19T11:28:56.794Z,6.88
2023-01-19T11:31:31.120Z,2.95
2023-01-19T11:33:58.376Z,7.57
2023-01-19T11:36:29.542Z,10.02
2023-01-19T11:38:58.837Z,4.88
2023-01-19T11:43:54.375Z,5.88
2023-01-19T11:46:23.040Z,4.13
2023-01-19T11:48:57.287Z,7.18
2023-01-19T11:51:27.800Z,3.95
2023-01-19T11:53:55.066Z,7.20
2023-01-19T11:56:28.181Z,4.47
2023-01-19T11:58:56.113Z,3.20
2023-01-19T12:01:25.111Z,5.40
2023-01-19T12:04:16.120Z,3.95
2023-01-19T12:06:47.961Z,4.03
2023-01-19T12:09:27.244Z,4.20
2023-01-19T12:14:27.193Z,4.45
2023-01-19T12:16:56.878Z,2.40
2023-01-19T12:19:27.317Z,4.43
2023-01-19T12:21:54.966Z,5.97
2023-01-19T12:24:22.223Z,3.75
2023-01-19T12:26:59.680Z,5.10
2023-01-19T12:29:29.325Z,6.47
2023-01-19T12:32:16.603Z,3.45
2023-01-19T12:34:46.475Z,6.80
2023-01-19T12:37:29.164Z,6.20
2023-01-19T12:40:00.849Z,3.92
2023-01-19T12:42:28.667Z,3.83
2023-01-19T12:45:09.384Z,3.78
2023-01-19T12:47:37.249Z,6.25
2023-01-19T12:50:25.784Z,2.80
2023-01-19T12:52:57.089Z,5.60
2023-01-19T12:55:33.306Z,3.10
2023-01-19T12:58:23.472Z,5.90
2023-01-19T13:00:51.836Z,3.78
2023-01-19T13:03:19.416Z,7.27
2023-01-19T13:05:52.513Z,2.60
2023-01-19T13:08:20.927Z,7.55
2023-01-19T13:11:00.202Z,6.03
2023-01-19T13:13:31.639Z,4.05
2023-01-19T13:16:22.407Z,4.95
2023-01-19T13:18:54.147Z,5.78
2023-01-19T13:21:27.264Z,4.63
2023-01-19T13:23:55.759Z,7.47
2023-01-19T13:26:24.844Z,4.53
2023-01-19T13:28:57.183Z,2.72
2023-01-19T13:31:25.777Z,6.13
2023-01-19T13:33:54.346Z,4.63
2023-01-19T13:36:26.265Z,4.88
2023-01-19T13:38:54.373Z,5.03
2023-01-19T13:41:24.927Z,5.15
2023-01-19T13:43:59.379Z,10.73
2023-01-19T13:46:27.854Z,3.30
2023-01-19T13:48:57.153Z,6.32
2023-01-19T13:53:55.721Z,6.25
2023-01-19T13:56:24.337Z,6.97
2023-01-19T13:58:58.105Z,2.88
2023-01-19T14:01:28.901Z,4.13
2023-01-19T14:03:57.858Z,4.47
2023-01-19T14:06:36.615Z,3.72
2023-01-19T14:09:17.433Z,4.38
2023-01-19T14:11:45.995Z,4.32
2023-01-19T14:14:28.838Z,3.83
2023-01-19T14:16:56.234Z,4.63
2023-01-19T14:19:23.668Z,7.40
2023-01-19T14:22:01.210Z,5.78
2023-01-19T14:24:34.953Z,5.13
2023-01-19T14:27:14.256Z,4.88
2023-01-19T14:32:19.689Z,2.80
2023-01-19T14:35:12.426Z,4.78
2023-01-19T14:37:49.798Z,4.55
2023-01-19T14:40:18.875Z,3.35
2023-01-19T14:42:48.150Z,6.43
2023-01-19T14:45:17.661Z,8.30
2023-01-19T14:47:45.714Z,3.55
2023-01-19T14:50:19.662Z,4.75
2023-01-19T14:52:56.298Z,5.15
2023-01-19T14:55:32.737Z,3.80
2023-01-19T14:58:00.195Z,5.65
2023-01-19T15:00:27.500Z,4.30
2023-01-19T15:02:54.794Z,3.67
2023-01-19T15:05:22.167Z,4.78
2023-01-19T15:07:49.515Z,3.45
2023-01-19T15:10:19.213Z,3.30
2023-01-19T15:12:46.582Z,2.53
2023-01-19T15:15:15.188Z,4.93
2023-01-19T15:17:42.787Z,6.65
2023-01-19T15:20:14.277Z,3.47
2023-01-19T15:22:41.546Z,5.80
2023-01-19T15:25:09.309Z,5.20
2023-01-19T15:27:36.803Z,3.47
2023-01-19T15:30:04.268Z,4.75
2023-01-19T15:32:31.542Z,3.55
2023-01-19T15:34:58.784Z,3.05
2023-01-19T15:37:26.128Z,6.07
2023-01-19T15:39:53.375Z,3.83
2023-01-19T15:42:20.712Z,3.05
2023-01-19T15:44:47.914Z,5.38
2023-01-19T15:47:15.172Z,4.55
2023-01-19T15:49:42.396Z,2.78
2023-01-19T15:52:09.676Z,4.95
2023-01-19T15:54:36.987Z,4.82
2023-01-19T15:57:04.395Z,3.42
2023-01-19T15:59:31.733Z,3.50
2023-01-19T16:01:59.192Z,5.45
2023-01-19T16:04:26.533Z,6.80
2023-01-19T16:06:53.748Z,5.43
2023-01-19T16:09:21.030Z,9.10
2023-01-19T16:11:48.298Z,6.07
2023-01-19T16:14:17.400Z,4.10
2023-01-19T16:16:46.116Z,7.88
2023-01-19T16:19:15.366Z,3.28
2023-01-19T16:21:43.972Z,8.32
2023-01-19T16:24:11.368Z,6.90
2023-01-19T16:26:38.697Z,4.25
2023-01-19T16:29:10.968Z,7.40
2023-01-19T16:31:42.518Z,6.05
2023-01-19T16:34:10.639Z,6.32
2023-01-19T16:36:40.223Z,4.32
2023-01-19T16:39:09.098Z,5.95
2023-01-19T16:41:36.561Z,4.90
2023-01-19T16:44:04.232Z,7.93
2023-01-19T16:46:35.932Z,8.68
2023-01-19T16:49:06.522Z,7.43
2023-01-19T16:51:34.076Z,7.50
2023-01-19T16:54:01.426Z,6.28
2023-01-19T16:56:28.825Z,6.60
2023-01-19T16:58:56.763Z,8.85
2023-01-19T17:01:24.727Z,7.75
2023-01-19T17:03:52.227Z,7.97
2023-01-19T17:06:22.860Z,5.68
2023-01-19T17:08:50.579Z,8.18
2023-01-19T17:11:22.331Z,5.38
2023-01-19T17:14:02.994Z,8.20
2023-01-19T17:16:31.520Z,8.65
2023-01-19T17:18:59.480Z,7.30
2023-01-19T17:21:27.058Z,6.22
2023-01-19T17:23:55.150Z,6.43
2023-01-19T17:26:23.862Z,7.38
2023-01-19T17:28:51.425Z,7.63
2023-01-19T17:31:20.708Z,14.05
2023-01-19T17:33:49.008Z,11.60
2023-01-19T17:36:22.296Z,6.25
2023-01-19T17:38:50.070Z,6.63
2023-01-19T17:41:18.336Z,6.50
2023-01-19T17:43:45.998Z,7.82
2023-01-19T17:46:13.689Z,8.85
2023-01-19T17:48:41.095Z,6.90
2023-01-19T17:51:10.191Z,7.32
2023-01-19T17:53:38.470Z,8.07
2023-01-19T17:56:06.615Z,5.45
2023-01-19T17:58:33.994Z,6.13
2023-01-19T18:01:08.582Z,8.98
2023-01-19T18:03:35.970Z,10.25
2023-01-19T18:06:03.231Z,8.35
2023-01-19T18:08:30.612Z,9.40
2023-01-19T18:10:59.239Z,8.60
2023-01-19T18:13:26.967Z,9.57
2023-01-19T18:15:59.000Z,5.80
2023-01-19T18:18:26.526Z,6.00
2023-01-19T18:20:53.879Z,8.65
2023-01-19T18:23:21.162Z,5.90
2023-01-19T18:25:48.493Z,8.10
2023-01-19T18:28:15.700Z,5.97
2023-01-19T18:30:43.159Z,5.90
2023-01-19T18:33:11.585Z,7.00
2023-01-19T18:35:41.699Z,7.57
2023-01-19T18:38:10.462Z,2.42
2023-01-19T18:40:40.056Z,2.72
2023-01-19T18:43:08.098Z,3.45
2023-01-19T18:45:37.029Z,2.47
2023-01-19T18:48:05.153Z,7.22
2023-01-19T18:50:32.923Z,7.70
2023-01-19T18:53:00.212Z,3.97
2023-01-19T18:55:27.504Z,3.80
2023-01-19T18:57:54.924Z,3.97
2023-01-19T19:00:22.369Z,1.77
2023-01-19T19:02:49.622Z,12.25
2023-01-19T19:05:16.928Z,3.85
2023-01-19T19:07:44.268Z,5.65
2023-01-19T19:10:12.050Z,6.70
2023-01-19T19:12:39.546Z,9.32
2023-01-19T19:15:07.402Z,6.68
2023-01-19T19:17:37.432Z,3.13
2023-01-19T19:20:04.733Z,4.43
2023-01-19T19:22:32.524Z,5.40
2023-01-19T19:24:59.786Z,5.93
2023-01-19T19:27:27.351Z,4.50
2023-01-19T19:29:54.596Z,4.13
2023-01-19T19:32:22.086Z,4.00
2023-01-19T19:34:50.611Z,5.18
2023-01-19T19:37:17.851Z,4.83
2023-01-19T19:39:45.168Z,2.47
2023-01-19T19:42:12.478Z,5.13
2023-01-19T19:44:39.738Z,2.85
2023-01-19T19:47:07.026Z,5.20
2023-01-19T19:49:34.335Z,3.42
2023-01-19T19:52:01.629Z,3.83
2023-01-19T19:54:28.955Z,5.72
2023-01-19T19:56:56.205Z,4.10
2023-01-19T19:59:23.670Z,3.17
2023-01-19T20:01:53.731Z,3.78
2023-01-19T20:04:22.854Z,4.15
2023-01-19T20:06:50.294Z,4.35
2023-01-19T20:09:18.188Z,3.58
2023-01-19T20:11:46.699Z,2.30
2023-01-19T20:14:16.310Z,3.47
2023-01-19T20:16:43.957Z,3.88
2023-01-19T20:19:11.555Z,2.83
2023-01-19T20:21:41.597Z,3.13
2023-01-19T20:24:10.626Z,2.85
2023-01-19T20:26:40.266Z,2.78
2023-01-19T20:29:07.611Z,2.70
2023-01-19T20:31:36.670Z,3.70
2023-01-19T20:34:05.506Z,4.20
2023-01-19T20:36:32.807Z,5.95
2023-01-19T20:39:00.575Z,6.82
2023-01-19T20:41:27.836Z,7.78
2023-01-19T20:43:55.075Z,8.25
2023-01-19T20:46:22.502Z,8.07
2023-01-19T20:48:52.939Z,8.10
2023-01-19T20:51:20.481Z,10.73
2023-01-19T20:53:48.414Z,12.75
2023-01-19T20:56:15.845Z,8.43
2023-01-19T20:58:43.348Z,6.10
2023-01-19T21:01:15.162Z,7.50
2023-01-19T21:03:42.789Z,7.55
2023-01-19T21:06:10.323Z,4.88
2023-01-19T21:08:37.796Z,4.97
2023-01-19T21:11:05.519Z,4.40
2023-01-19T21:13:33.018Z,5.07
2023-01-19T21:16:00.683Z,6.53
2023-01-19T21:18:28.357Z,4.53
2023-01-19T21:20:57.593Z,5.40
2023-01-19T21:23:25.487Z,4.30
2023-01-19T21:25:53.564Z,5.05
2023-01-19T21:28:22.678Z,8.30
2023-01-19T21:30:50.577Z,6.20
2023-01-19T21:33:18.248Z,6.70
2023-01-19T21:35:52.629Z,7.72
2023-01-19T21:38:19.989Z,6.60
2023-01-19T21:40:47.498Z,8.68
2023-01-19T21:43:15.014Z,10.70
2023-01-19T21:45:43.160Z,9.80
2023-01-19T21:48:10.556Z,11.90
2023-01-19T21:50:37.882Z,11.43
2023-01-19T21:53:11.222Z,15.43
2023-01-19T21:55:39.081Z,15.55
2023-01-19T21:58:06.285Z,13.93
2023-01-19T22:00:33.632Z,17.92
2023-01-19T22:03:04.311Z,17.17
2023-01-19T22:05:36.752Z,15.57
2023-01-19T22:08:05.057Z,18.70
2023-01-19T22:10:32.372Z,16.27
2023-01-19T22:12:59.588Z,16.42
2023-01-19T22:15:26.860Z,17.48
2023-01-19T22:17:54.061Z,15.02
2023-01-19T22:20:21.310Z,14.07
2023-01-19T22:22:48.554Z,14.25
2023-01-19T22:25:15.883Z,12.32
2023-01-19T22:27:43.148Z,12.20
2023-01-19T22:30:10.573Z,14.18
2023-01-19T22:32:37.791Z,12.85
2023-01-19T22:35:05.243Z,14.18
2023-01-19T22:37:36.040Z,12.80
2023-01-19T22:40:03.985Z,14.43
2023-01-19T22:42:31.295Z,14.50
2023-01-19T22:44:58.547Z,14.73
2023-01-19T22:47:25.812Z,20.40
2023-01-19T22:49:53.109Z,15.43
2023-01-19T22:52:20.375Z,16.73
2023-01-19T22:54:47.665Z,18.40
2023-01-19T22:57:14.842Z,18.02
2023-01-19T22:59:43.626Z,16.08
2023-01-19T23:02:12.299Z,15.55
2023-01-19T23:04:39.661Z,13.02
2023-01-19T23:07:09.296Z,17.20
2023-01-19T23:09:36.543Z,16.23
2023-01-19T23:12:03.980Z,12.75
2023-01-19T23:14:31.146Z,16.83
2023-01-19T23:16:58.469Z,13.57
2023-01-19T23:19:25.741Z,15.98
2023-01-19T23:21:53.065Z,15.88
2023-01-19T23:24:20.356Z,17.42
2023-01-19T23:26:49.169Z,17.90
2023-01-19T23:29:17.361Z,16.80
2023-01-19T23:31:46.273Z,21.58
2023-01-19T23:34:14.197Z,19.75
2023-01-19T23:36:42.126Z,16.75
2023-01-19T23:39:13.237Z,17.17
2023-01-19T23:41:40.749Z,16.80
2023-01-19T23:44:08.248Z,19.17
2023-01-19T23:46:35.615Z,16.20
2023-01-19T23:49:02.931Z,16.48
2023-01-19T23:51:30.944Z,17.67
2023-01-19T23:53:58.996Z,14.75
2023-01-19T23:56:28.212Z,13.85
2023-01-19T23:58:56.980Z,15.63
